createdAt,value
2023-02-09T00:01:23.956Z,7.60
2023-02-09T00:03:53.732Z,7.68
2023-02-09T00:06:22.938Z,7.66
2023-02-09T00:08:50.979Z,8.03
2023-02-09T00:11:21.083Z,7.86
2023-02-09T00:13:47.920Z,7.78
2023-02-09T00:16:15.761Z,7.65
2023-02-09T00:18:43.611Z,7.54
2023-02-09T00:21:13.075Z,7.42
2023-02-09T00:23:42.222Z,7.34
2023-02-09T00:26:12.218Z,7.09
2023-02-09T00:28:43.674Z,7.18
2023-02-09T00:31:13.912Z,7.45
2023-02-09T00:33:42.003Z,7.32
2023-02-09T00:36:14.151Z,7.19
2023-02-09T00:38:44.081Z,6.93
2023-02-09T00:41:12.376Z,6.74
2023-02-09T00:43:40.247Z,6.98
2023-02-09T00:46:08.699Z,6.84
2023-02-09T00:48:37.866Z,7.05
2023-02-09T00:51:06.028Z,7.19
2023-02-09T00:53:37.370Z,6.82
2023-02-09T00:56:05.708Z,6.84
2023-02-09T00:58:33.512Z,6.64
2023-02-09T01:01:01.431Z,6.93
2023-02-09T01:03:29.286Z,7.21
2023-02-09T01:05:59.933Z,6.92
2023-02-09T01:08:28.945Z,6.83
2023-02-09T01:10:58.246Z,6.92
2023-02-09T01:13:26.257Z,7.02
2023-02-09T01:15:54.107Z,6.88
2023-02-09T01:18:22.027Z,6.88
2023-02-09T01:20:49.949Z,6.87
2023-02-09T01:23:17.867Z,6.98
2023-02-09T01:25:45.968Z,7.05
2023-02-09T01:28:15.224Z,6.90
2023-02-09T01:30:43.409Z,6.99
2023-02-09T01:33:11.503Z,6.59
2023-02-09T01:35:39.324Z,6.94
2023-02-09T01:38:07.272Z,7.17
2023-02-09T01:40:36.298Z,6.90
2023-02-09T01:43:04.411Z,6.93
2023-02-09T01:45:36.459Z,6.73
2023-02-09T01:48:06.054Z,6.78
2023-02-09T01:50:36.962Z,6.69
2023-02-09T01:53:05.154Z,6.86
2023-02-09T01:55:36.837Z,6.56
2023-02-09T01:58:08.847Z,6.91
2023-02-09T02:00:38.033Z,6.94
2023-02-09T02:03:08.645Z,7.01
2023-02-09T02:05:39.845Z,6.52
2023-02-09T02:08:13.259Z,6.44
2023-02-09T02:10:41.484Z,6.34
2023-02-09T02:13:09.358Z,6.46
2023-02-09T02:15:42.419Z,6.56
2023-02-09T02:18:25.214Z,6.56
2023-02-09T02:21:26.300Z,6.64
2023-02-09T02:24:07.509Z,6.21
2023-02-09T02:26:59.000Z,6.46
2023-02-09T02:30:03.034Z,6.59
2023-02-09T02:32:41.190Z,6.37
2023-02-09T02:35:16.982Z,6.45
2023-02-09T02:37:55.407Z,6.08
2023-02-09T02:40:29.567Z,5.89
2023-02-09T02:43:03.738Z,6.16
2023-02-09T02:45:39.997Z,6.46
2023-02-09T02:48:17.506Z,6.40
2023-02-09T02:50:55.618Z,6.64
2023-02-09T02:53:29.623Z,6.47
2023-02-09T02:56:03.947Z,6.17
2023-02-09T02:58:32.930Z,6.23
2023-02-09T03:01:02.885Z,6.33
2023-02-09T03:03:34.637Z,6.52
2023-02-09T03:06:05.390Z,6.23
2023-02-09T03:08:47.164Z,6.23
2023-02-09T03:11:15.129Z,6.47
2023-02-09T03:13:55.910Z,6.50
2023-02-09T03:16:33.563Z,6.61
2023-02-09T03:19:14.312Z,6.42
2023-02-09T03:21:50.885Z,6.62
2023-02-09T03:24:24.134Z,6.64
2023-02-09T03:26:54.211Z,6.58
2023-02-09T03:29:22.797Z,6.62
2023-02-09T03:31:51.397Z,6.57
2023-02-09T03:34:21.252Z,6.70
2023-02-09T03:36:52.278Z,6.64
2023-02-09T03:39:20.237Z,6.55
2023-02-09T03:41:48.116Z,6.58
2023-02-09T03:44:35.810Z,6.41
2023-02-09T03:47:05.594Z,6.17
2023-02-09T03:49:39.376Z,6.47
2023-02-09T03:52:08.792Z,6.09
2023-02-09T03:54:37.023Z,6.32
2023-02-09T03:57:05.812Z,6.18
2023-02-09T03:59:35.443Z,6.25
2023-02-09T04:02:04.120Z,6.30
2023-02-09T04:04:32.355Z,6.31
2023-02-09T04:07:01.753Z,6.38
2023-02-09T04:09:30.175Z,6.29
2023-02-09T04:11:58.056Z,6.34
2023-02-09T04:14:25.998Z,6.33
2023-02-09T04:16:53.888Z,6.18
2023-02-09T04:19:21.750Z,6.28
2023-02-09T04:21:49.670Z,6.13
2023-02-09T04:24:28.398Z,6.20
2023-02-09T04:26:56.272Z,6.22
2023-02-09T04:29:24.138Z,6.15
2023-02-09T04:31:52.196Z,6.14
2023-02-09T04:34:21.097Z,6.09
2023-02-09T04:36:49.055Z,6.13
2023-02-09T04:39:16.982Z,6.14
2023-02-09T04:41:46.203Z,6.09
2023-02-09T04:44:14.124Z,5.95
2023-02-09T04:46:43.641Z,6.02
2023-02-09T04:49:12.798Z,5.88
2023-02-09T04:51:40.683Z,6.01
2023-02-09T04:54:08.515Z,5.92
2023-02-09T04:56:39.238Z,6.03
2023-02-09T04:59:27.277Z,5.96
2023-02-09T05:01:55.150Z,5.81
2023-02-09T05:04:22.952Z,5.86
2023-02-09T05:06:51.387Z,5.81
2023-02-09T05:09:19.413Z,5.78
2023-02-09T05:11:47.361Z,5.50
2023-02-09T05:14:16.591Z,5.69
2023-02-09T05:16:44.500Z,5.82
2023-02-09T05:19:12.360Z,5.99
2023-02-09T05:21:40.262Z,5.13
2023-02-09T05:24:08.289Z,5.42
2023-02-09T05:26:36.404Z,5.82
2023-02-09T05:29:04.443Z,5.89
2023-02-09T05:31:33.782Z,5.97
2023-02-09T05:34:02.154Z,5.89
2023-02-09T05:36:30.098Z,5.72
2023-02-09T05:38:58.026Z,5.85
2023-02-09T05:41:46.049Z,5.53
2023-02-09T05:44:13.890Z,5.47
2023-02-09T05:46:43.179Z,4.95
2023-02-09T05:49:11.094Z,4.79
2023-02-09T05:51:39.053Z,5.15
2023-02-09T05:54:07.025Z,5.14
2023-02-09T05:56:35.542Z,4.74
2023-02-09T05:59:04.653Z,4.07
2023-02-09T06:01:32.599Z,4.72
2023-02-09T06:04:01.839Z,4.06
2023-02-09T06:06:29.806Z,4.47
2023-02-09T06:08:57.728Z,4.18
2023-02-09T06:11:25.625Z,5.33
2023-02-09T06:13:53.437Z,4.94
2023-02-09T06:16:21.286Z,5.22
2023-02-09T06:18:49.154Z,4.75
2023-02-09T06:21:18.413Z,5.16
2023-02-09T06:23:46.354Z,5.40
2023-02-09T06:26:16.849Z,5.47
2023-02-09T06:28:45.169Z,5.17
2023-02-09T06:31:13.557Z,5.42
2023-02-09T06:33:42.162Z,5.50
2023-02-09T06:36:11.207Z,5.01
2023-02-09T06:38:40.723Z,4.98
2023-02-09T06:41:08.722Z,4.98
2023-02-09T06:43:36.882Z,4.97
2023-02-09T06:46:08.740Z,5.14
2023-02-09T06:48:39.505Z,5.37
2023-02-09T06:51:11.697Z,5.65
2023-02-09T06:53:42.614Z,5.28
2023-02-09T06:56:11.058Z,5.79
2023-02-09T06:58:41.769Z,5.40
2023-02-09T07:01:11.713Z,5.67
2023-02-09T07:03:39.735Z,6.05
2023-02-09T07:06:09.243Z,5.88
2023-02-09T07:08:37.691Z,6.11
2023-02-09T07:11:08.988Z,6.39
2023-02-09T07:13:36.934Z,6.82
2023-02-09T07:16:06.779Z,6.73
2023-02-09T07:18:34.835Z,6.91
2023-02-09T07:21:04.558Z,6.96
2023-02-09T07:23:32.586Z,6.67
2023-02-09T07:26:04.036Z,6.72
2023-02-09T07:28:33.757Z,7.28
2023-02-09T07:31:06.093Z,6.94
2023-02-09T07:33:34.590Z,7.38
2023-02-09T07:36:04.588Z,7.33
2023-02-09T07:38:32.489Z,7.63
2023-02-09T07:41:01.053Z,7.70
2023-02-09T07:43:29.016Z,7.51
2023-02-09T07:46:01.925Z,7.85
2023-02-09T07:48:30.197Z,7.75
2023-02-09T07:50:58.480Z,6.97
2023-02-09T07:53:26.707Z,5.72
2023-02-09T07:55:54.675Z,5.93
2023-02-09T07:58:22.996Z,6.12
2023-02-09T08:00:52.001Z,6.61
2023-02-09T08:03:24.193Z,4.33
2023-02-09T08:05:57.405Z,3.61
2023-02-09T08:08:25.451Z,5.03
2023-02-09T08:10:53.868Z,6.43
2023-02-09T08:13:22.018Z,6.81
2023-02-09T08:15:51.828Z,4.60
2023-02-09T08:18:22.984Z,2.06
2023-02-09T08:20:53.076Z,2.26
2023-02-09T08:23:23.154Z,3.60
2023-02-09T08:25:52.293Z,5.08
2023-02-09T08:28:20.743Z,3.17
2023-02-09T08:30:49.530Z,3.15
2023-02-09T08:33:17.513Z,4.18
2023-02-09T08:35:47.161Z,6.87
2023-02-09T08:38:15.288Z,5.75
2023-02-09T08:40:44.232Z,2.15
2023-02-09T08:43:13.027Z,4.78
2023-02-09T08:45:42.353Z,7.13
2023-02-09T08:48:10.788Z,6.62
2023-02-09T08:50:39.319Z,6.84
2023-02-09T08:53:08.894Z,6.34
2023-02-09T08:55:39.106Z,4.07
2023-02-09T08:58:07.771Z,5.97
2023-02-09T09:00:35.667Z,6.26
2023-02-09T09:03:05.930Z,7.58
2023-02-09T09:05:34.976Z,4.61
2023-02-09T09:08:02.881Z,6.75
2023-02-09T09:10:32.985Z,6.80
2023-02-09T09:13:00.909Z,6.80
2023-02-09T09:15:28.900Z,7.38
2023-02-09T09:17:56.836Z,7.26
2023-02-09T09:20:24.712Z,4.59
2023-02-09T09:22:52.577Z,5.63
2023-02-09T09:25:20.442Z,5.40
2023-02-09T09:27:49.647Z,6.60
2023-02-09T09:30:17.580Z,5.94
2023-02-09T09:32:45.585Z,4.91
2023-02-09T09:35:13.490Z,5.39
2023-02-09T09:37:41.466Z,5.85
2023-02-09T09:40:10.993Z,5.72
2023-02-09T09:42:40.605Z,8.06
2023-02-09T09:45:14.532Z,8.88
2023-02-09T09:47:43.649Z,7.82
2023-02-09T09:50:17.566Z,5.94
2023-02-09T09:52:48.454Z,6.36
2023-02-09T09:55:22.369Z,6.31
2023-02-09T09:57:51.007Z,7.73
2023-02-09T10:00:25.326Z,5.74
2023-02-09T10:02:53.512Z,8.13
2023-02-09T10:05:23.049Z,7.10
2023-02-09T10:07:56.569Z,7.20
2023-02-09T10:10:34.774Z,7.62
2023-02-09T10:13:04.866Z,6.15
2023-02-09T10:15:35.838Z,7.55
2023-02-09T10:18:03.902Z,6.55
2023-02-09T10:20:43.912Z,8.18
2023-02-09T10:23:20.169Z,7.23
2023-02-09T10:26:08.403Z,6.71
2023-02-09T10:28:42.023Z,7.56
2023-02-09T10:31:16.979Z,6.94
2023-02-09T10:33:46.520Z,7.57
2023-02-09T10:36:25.613Z,8.55
2023-02-09T10:38:54.630Z,10.21
2023-02-09T10:41:22.907Z,8.60
2023-02-09T10:43:52.774Z,6.48
2023-02-09T10:46:22.360Z,5.66
2023-02-09T10:48:50.524Z,7.50
2023-02-09T10:51:29.010Z,7.24
2023-02-09T10:54:02.960Z,7.44
2023-02-09T10:56:36.957Z,7.11
2023-02-09T10:59:16.567Z,8.66
2023-02-09T11:01:55.997Z,9.37
2023-02-09T11:04:25.719Z,10.24
2023-02-09T11:06:56.752Z,10.40
2023-02-09T11:09:29.526Z,11.23
2023-02-09T11:11:57.552Z,8.12
2023-02-09T11:14:25.911Z,8.59
2023-02-09T11:17:11.078Z,8.36
2023-02-09T11:19:54.559Z,9.90
2023-02-09T11:22:29.119Z,10.03
2023-02-09T11:25:03.461Z,7.05
2023-02-09T11:28:00.899Z,8.29
2023-02-09T11:30:46.830Z,11.65
2023-02-09T11:33:21.344Z,9.05
2023-02-09T11:35:53.662Z,10.90
2023-02-09T11:38:27.131Z,11.87
2023-02-09T11:40:56.989Z,9.46
2023-02-09T11:43:29.839Z,8.67
2023-02-09T11:46:00.867Z,8.96
2023-02-09T11:48:32.287Z,7.25
2023-02-09T11:51:04.453Z,6.72
2023-02-09T11:53:43.500Z,8.05
2023-02-09T11:56:13.935Z,9.20
2023-02-09T11:58:45.789Z,9.19
2023-02-09T12:01:32.818Z,8.98
2023-02-09T12:04:08.855Z,8.13
2023-02-09T12:06:40.058Z,8.38
2023-02-09T12:09:16.966Z,9.23
2023-02-09T12:11:58.732Z,11.43
2023-02-09T12:14:40.113Z,12.81
2023-02-09T12:17:13.231Z,13.03
2023-02-09T12:19:45.651Z,11.41
2023-02-09T12:22:46.692Z,12.57
2023-02-09T12:25:22.730Z,12.46
2023-02-09T12:28:13.484Z,12.96
2023-02-09T12:31:05.307Z,16.91
2023-02-09T12:33:35.970Z,16.50
2023-02-09T12:36:24.754Z,11.88
2023-02-09T12:39:05.785Z,13.17
2023-02-09T12:42:12.390Z,14.87
2023-02-09T12:44:55.186Z,13.75
2023-02-09T12:47:57.581Z,12.92
2023-02-09T12:50:33.221Z,15.10
2023-02-09T12:53:36.230Z,15.96
2023-02-09T12:56:26.189Z,14.46
2023-02-09T12:58:56.496Z,13.40
2023-02-09T13:02:02.638Z,15.93
2023-02-09T13:04:31.852Z,13.21
2023-02-09T13:07:00.508Z,13.66
2023-02-09T13:09:32.078Z,13.30
2023-02-09T13:12:06.899Z,14.69
2023-02-09T13:14:34.827Z,16.88
2023-02-09T13:17:28.306Z,16.87
2023-02-09T13:20:29.672Z,15.77
2023-02-09T13:23:16.325Z,17.47
2023-02-09T13:25:45.067Z,17.96
2023-02-09T13:28:16.956Z,14.81
2023-02-09T13:30:45.902Z,12.70
2023-02-09T13:33:23.726Z,16.31
2023-02-09T13:36:08.874Z,13.92
2023-02-09T13:38:41.715Z,14.06
2023-02-09T13:41:26.507Z,17.02
2023-02-09T13:43:56.039Z,17.30
2023-02-09T13:46:29.128Z,14.48
2023-02-09T13:49:10.831Z,15.53
2023-02-09T13:51:38.934Z,17.95
2023-02-09T13:54:07.155Z,14.15
2023-02-09T13:56:36.164Z,16.90
2023-02-09T13:59:05.558Z,18.36
2023-02-09T14:01:35.092Z,15.46
2023-02-09T14:04:07.374Z,15.50
2023-02-09T14:06:37.964Z,13.86
2023-02-09T14:09:08.252Z,15.57
2023-02-09T14:11:42.718Z,13.19
2023-02-09T14:14:17.301Z,13.65
2023-02-09T14:16:53.604Z,14.05
2023-02-09T14:19:27.284Z,15.77
2023-02-09T14:21:55.233Z,14.62
2023-02-09T14:24:24.179Z,14.14
2023-02-09T14:26:56.861Z,14.79
2023-02-09T14:29:28.647Z,13.65
2023-02-09T14:31:59.624Z,13.01
2023-02-09T14:34:35.819Z,14.04
2023-02-09T14:37:17.581Z,13.99
2023-02-09T14:39:55.803Z,14.84
2023-02-09T14:42:24.056Z,13.22
2023-02-09T14:44:55.694Z,13.46
2023-02-09T14:47:32.773Z,14.21
2023-02-09T14:50:00.772Z,15.74
2023-02-09T14:52:31.497Z,14.55
2023-02-09T14:55:01.824Z,12.95
2023-02-09T14:57:32.022Z,11.95
2023-02-09T15:00:01.385Z,10.58
2023-02-09T15:02:29.366Z,11.12
2023-02-09T15:04:57.312Z,11.62
2023-02-09T15:07:30.874Z,10.57
2023-02-09T15:09:58.695Z,12.20
2023-02-09T15:12:28.597Z,10.60
2023-02-09T15:15:00.717Z,11.48
2023-02-09T15:17:32.242Z,10.96
2023-02-09T15:20:00.172Z,9.57
2023-02-09T15:22:28.112Z,9.59
2023-02-09T15:24:55.960Z,11.39
2023-02-09T15:27:31.081Z,12.35
2023-02-09T15:30:01.699Z,11.82
2023-02-09T15:32:32.257Z,11.56
2023-02-09T15:35:00.134Z,11.71
2023-02-09T15:37:30.081Z,10.68
2023-02-09T15:40:00.670Z,9.25
2023-02-09T15:42:46.372Z,10.26
2023-02-09T15:45:36.002Z,10.23
2023-02-09T15:48:05.504Z,11.29
2023-02-09T15:50:36.833Z,10.93
2023-02-09T15:53:07.778Z,10.08
2023-02-09T15:55:36.739Z,11.01
2023-02-09T15:58:05.669Z,11.78
2023-02-09T16:00:33.502Z,11.32
2023-02-09T16:03:02.147Z,10.47
2023-02-09T16:05:31.496Z,11.70
2023-02-09T16:07:59.919Z,10.35
2023-02-09T16:10:30.081Z,10.32
2023-02-09T16:12:57.970Z,11.40
2023-02-09T16:15:27.356Z,11.22
2023-02-09T16:17:55.235Z,12.06
2023-02-09T16:20:25.789Z,10.78
2023-02-09T16:22:55.885Z,10.38
2023-02-09T16:25:25.141Z,9.36
2023-02-09T16:27:54.482Z,9.48
2023-02-09T16:30:24.772Z,10.89
2023-02-09T16:32:52.666Z,9.42
2023-02-09T16:35:22.021Z,8.41
2023-02-09T16:37:51.362Z,10.34
2023-02-09T16:40:25.460Z,9.70
2023-02-09T16:42:53.647Z,8.80
2023-02-09T16:45:21.852Z,9.19
2023-02-09T16:47:52.098Z,7.91
2023-02-09T16:50:24.638Z,8.82
2023-02-09T16:52:53.240Z,7.98
2023-02-09T16:55:27.708Z,7.33
2023-02-09T16:57:57.166Z,9.18
2023-02-09T17:00:26.602Z,7.45
2023-02-09T17:02:56.222Z,7.92
2023-02-09T17:05:27.041Z,8.51
2023-02-09T17:07:56.709Z,9.21
2023-02-09T17:10:27.990Z,9.12
2023-02-09T17:12:56.002Z,8.40
2023-02-09T17:15:30.548Z,8.36
2023-02-09T17:18:02.373Z,8.14
2023-02-09T17:20:35.753Z,9.20
2023-02-09T17:23:03.718Z,8.57
2023-02-09T17:25:33.261Z,8.01
2023-02-09T17:28:01.193Z,7.52
2023-02-09T17:30:29.089Z,8.00
2023-02-09T17:33:00.624Z,6.86
2023-02-09T17:35:58.052Z,8.27
2023-02-09T17:38:22.866Z,8.60
2023-02-09T17:40:52.496Z,9.12
2023-02-09T17:43:20.762Z,10.02
2023-02-09T17:45:50.826Z,8.19
2023-02-09T17:48:19.058Z,7.34
2023-02-09T17:50:48.570Z,9.30
2023-02-09T17:53:18.284Z,6.63
2023-02-09T17:55:46.643Z,8.40
2023-02-09T17:58:16.152Z,6.68
2023-02-09T18:00:45.861Z,7.85
2023-02-09T18:03:17.481Z,6.78
2023-02-09T18:05:46.407Z,5.97
2023-02-09T18:08:14.465Z,7.36
2023-02-09T18:10:42.296Z,6.81
2023-02-09T18:13:10.803Z,6.72
2023-02-09T18:15:42.587Z,7.95
2023-02-09T18:18:10.622Z,7.29
2023-02-09T18:20:38.553Z,7.17
2023-02-09T18:23:06.382Z,6.88
2023-02-09T18:25:36.204Z,7.96
2023-02-09T18:28:06.131Z,7.51
2023-02-09T18:30:36.122Z,8.21
2023-02-09T18:33:05.513Z,7.38
2023-02-09T18:35:35.358Z,6.55
2023-02-09T18:38:04.349Z,5.97
2023-02-09T18:40:32.935Z,6.41
2023-02-09T18:43:01.312Z,6.67
2023-02-09T18:45:30.485Z,6.40
2023-02-09T18:47:58.753Z,6.07
2023-02-09T18:50:32.197Z,6.48
2023-02-09T18:53:01.871Z,6.93
2023-02-09T18:55:32.393Z,7.28
2023-02-09T18:58:01.406Z,6.14
2023-02-09T19:00:29.627Z,5.23
2023-02-09T19:02:59.024Z,7.60
2023-02-09T19:05:30.271Z,5.89
2023-02-09T19:07:59.507Z,6.35
2023-02-09T19:10:27.561Z,6.41
2023-02-09T19:12:55.397Z,5.57
2023-02-09T19:15:25.809Z,6.16
2023-02-09T19:17:56.469Z,5.87
2023-02-09T19:20:27.057Z,6.50
2023-02-09T19:22:56.837Z,6.15
2023-02-09T19:25:27.033Z,4.54
2023-02-09T19:27:55.361Z,4.98
2023-02-09T19:30:26.419Z,5.11
2023-02-09T19:32:55.125Z,5.42
2023-02-09T19:35:23.208Z,5.86
2023-02-09T19:37:52.261Z,5.83
2023-02-09T19:40:27.990Z,4.74
2023-02-09T19:42:56.086Z,6.31
2023-02-09T19:45:24.361Z,5.12
2023-02-09T19:47:52.317Z,4.27
2023-02-09T19:50:20.441Z,4.19
2023-02-09T19:52:50.274Z,5.36
2023-02-09T19:55:18.230Z,5.86
2023-02-09T19:57:47.539Z,4.79
2023-02-09T20:00:18.112Z,4.46
2023-02-09T20:02:46.223Z,4.16
2023-02-09T20:05:14.808Z,4.21
2023-02-09T20:07:42.886Z,4.41
2023-02-09T20:10:11.470Z,4.10
2023-02-09T20:12:39.344Z,4.67
2023-02-09T20:15:09.012Z,4.84
2023-02-09T20:17:36.877Z,4.25
2023-02-09T20:20:05.416Z,4.33
2023-02-09T20:22:34.671Z,4.56
2023-02-09T20:25:02.477Z,4.79
2023-02-09T20:27:30.470Z,4.60
2023-02-09T20:30:01.353Z,4.76
2023-02-09T20:32:31.318Z,5.06
2023-02-09T20:34:59.836Z,4.66
2023-02-09T20:37:28.195Z,5.14
2023-02-09T20:39:56.175Z,4.23
2023-02-09T20:42:41.532Z,6.30
2023-02-09T20:45:31.676Z,4.48
2023-02-09T20:48:01.119Z,5.30
2023-02-09T20:50:29.091Z,4.83
2023-02-09T20:52:56.929Z,4.12
2023-02-09T20:55:24.838Z,5.03
2023-02-09T20:57:52.881Z,4.21
2023-02-09T21:00:20.943Z,6.03
2023-02-09T21:02:48.902Z,4.99
2023-02-09T21:05:18.393Z,5.46
2023-02-09T21:07:46.250Z,5.58
2023-02-09T21:10:15.720Z,5.68
2023-02-09T21:12:43.607Z,5.30
2023-02-09T21:15:11.490Z,5.93
2023-02-09T21:17:47.735Z,4.27
2023-02-09T21:20:16.095Z,5.39
2023-02-09T21:22:45.299Z,4.30
2023-02-09T21:25:13.744Z,5.05
2023-02-09T21:27:41.708Z,5.00
2023-02-09T21:30:10.434Z,5.21
2023-02-09T21:32:38.437Z,4.41
2023-02-09T21:35:10.275Z,5.51
2023-02-09T21:37:39.168Z,5.25
2023-02-09T21:40:08.999Z,4.63
2023-02-09T21:42:39.169Z,5.17
2023-02-09T21:45:08.062Z,4.76
2023-02-09T21:47:38.202Z,4.93
2023-02-09T21:50:07.845Z,6.05
2023-02-09T21:52:36.198Z,4.08
2023-02-09T21:55:04.593Z,3.99
2023-02-09T21:57:33.850Z,3.81
2023-02-09T22:00:05.309Z,4.20
2023-02-09T22:02:33.132Z,4.95
2023-02-09T22:05:01.111Z,4.67
2023-02-09T22:07:29.188Z,4.53
2023-02-09T22:09:57.042Z,4.15
2023-02-09T22:12:24.907Z,4.71
2023-02-09T22:14:54.148Z,6.49
2023-02-09T22:17:22.429Z,5.72
2023-02-09T22:19:50.361Z,5.95
2023-02-09T22:22:18.338Z,5.53
2023-02-09T22:24:46.181Z,6.26
2023-02-09T22:27:14.011Z,5.78
2023-02-09T22:29:41.848Z,5.83
2023-02-09T22:32:11.114Z,6.52
2023-02-09T22:34:39.025Z,5.51
2023-02-09T22:37:06.877Z,6.55
2023-02-09T22:39:34.720Z,4.69
2023-02-09T22:42:02.598Z,5.64
2023-02-09T22:44:31.007Z,6.70
2023-02-09T22:46:58.886Z,5.89
2023-02-09T22:49:28.123Z,5.22
2023-02-09T22:51:56.007Z,6.92
2023-02-09T22:54:23.868Z,6.25
2023-02-09T22:56:51.961Z,5.83
2023-02-09T22:59:19.798Z,4.76
2023-02-09T23:01:48.585Z,6.55
2023-02-09T23:04:16.708Z,5.78
2023-02-09T23:06:46.399Z,6.00
2023-02-09T23:09:15.009Z,6.79
2023-02-09T23:11:44.300Z,8.14
2023-02-09T23:14:12.597Z,6.26
2023-02-09T23:16:41.855Z,6.74
2023-02-09T23:19:13.247Z,6.85
2023-02-09T23:21:42.638Z,7.69
2023-02-09T23:24:12.850Z,6.74
2023-02-09T23:26:41.339Z,8.37
2023-02-09T23:29:12.273Z,7.42
2023-02-09T23:31:40.614Z,8.35
2023-02-09T23:34:08.638Z,7.92
2023-02-09T23:36:39.408Z,6.90
2023-02-09T23:39:07.934Z,6.34
2023-02-09T23:41:37.250Z,7.01
2023-02-09T23:44:05.285Z,5.81
2023-02-09T23:46:33.243Z,7.42
2023-02-09T23:49:01.330Z,7.54
2023-02-09T23:51:30.785Z,5.90
2023-02-09T23:53:59.999Z,7.91
2023-02-09T23:56:29.845Z,5.88
2023-02-09T23:58:59.175Z,7.25
